Portada
METAR-TAF:

METAR-TAF

Aeroports :

Kōchi, Japó

latitud: 33-32N, longitud: 133-40E, altitud: 7 m

Observació

L'informe es va fer fa 40 minuts, a les 01:00 UTC
Vent 6 kt del Oest/Sud-Oest
Temperatura 6°C
Humitat 56%
Pressió 1020 hPa
Visibilitat 10 km o més
Escasses núvols a una alçada de 2500 ft

METAR: RJOK 180100Z 25006KT 9999 FEW025 06/M02 Q1020

Hora: 10:40 (01:40 UTC)

Pronòstic

L'informe es va fer fa 2 hores i 34 minuts, a les 23:06 UTC
Pronòstic vàlid del 18 a les 00 UTC al 19 a les 06 UTC
Vent 10 kt del Nord-Oest
Visibilitat 10 km o més
Escasses núvols a una alçada de 3500 ft
Evolucionant progressivament
l' 19 a les 00 UTC al 19 a les 03 UTC
Vent 6 kt del Sud

TAF: RJOK 172306Z 1800/1906 32010KT 9999 FEW035 BECMG 1900/1903 18006KT

Observacions i pronòstics meteorològics de més de 4000 aeroports (METAR i TAF).

Les estacions disponibles són els punts grocs i vermells al mapa.

Posi el ratolí al punt desitjat per veure el nom de l'estació.

Feu clic per veure les observacions i els pronòstics meteorològics.

Per canviar el mapa: feu clic els botons verds amb una creu de color negre per apropar; al botó verd amb un guió per allunyar la imatge; o en les fletxes verdes per a mapes adjacents.


METAR-TAF: